LFBE/EGC METAR and TAF weather

Enter ICAO airport designator
Station Type Date Time Source
LFBE METAR 2022/06/28 15:30 UTC NOAA

LFBE 281530Z AUTO 28006KT 240V330 CAVOK 26/14 Q1017 NOSIG


Station Type Date Time Source
LFBE Decoded METAR 2022/06/28 15:30 UTC NOAA

Bergerac, France (LFBE) 44-49N 000-31E 52M
Jun 28, 2022 - 11:30 AM EDT / 2022.06.28 1530 UTC
Wind: from the W (280 degrees) at 7 MPH (6 KT) (direction variable):0
Visibility: greater than 7 mile(s):0
Temperature: 78 F (26 C)
Dew Point: 57 F (14 C)
Relative Humidity: 47%
Pressure (altimeter): 30.03 in. Hg (1017 hPa)
ob: LFBE 281530Z AUTO 28006KT 240V330 CAVOK 26/14 Q1017 NOSIG
cycle: 15

Station Type Date Time Source
LFBE TAF 2022/06/28 12:21 UTC NOAA

TAF TAF LFBE 281100Z 2812/2912 28005KT CAVOK

Example: see airport list